Chase, Canada
Current Conditions -  °F | °C
As of 9:00 AM on Thursday 18 Dec 2014 (Local Time) from CYKA Reporting Station
Broken Clouds Broken Clouds  
Wind Chill:   Ceiling: 1900
Heat Index:   Visibility: 20mi
Dew Point: -1°   Wind: 3mph
Humidity: 87%   Direction: 60°ENE
Pressure: 29.93"   Gusts: NA
Location:  50.82°N, 119.68°W
Report Text: CYKA 181700Z 06003KT 20SM SCT010 BKN019 BKN080 01/M01 A2993 RMK SC3SC3AC1 SLP150
Loading
Personal Weather Stations






























Interactive Weather Map New forecast layout! Learn more

10-Day Weather Forecast

Advertisements
Track Severe Weather on mobile